QAK095 MMMY-MMAA
Flight info
| Callsign | QAK095 |
|---|---|
| Flight time | 1h 30m |
| Altitude | 35000 |
| Route | KERGA1A KERGA UT132 DARAN DCT TEVOS/N0441F340 UT116 VOKAM UJ55 ANALU ANALU1B |
| Aircraft | B752/M-SDE2E3FGHIJ3J4J7RWXY/LB1 |
Departure
| Time | 2026-04-22 18:27 |
|---|---|
| Airport | Monterrey International Airport (MMMY) |
Arrival
| Time | 2026-04-22 19:58 |
|---|---|
| Airport | General Juan N. Álvarez International Airport (MMAA) |
| Time | Latitude | Longitude | Altitude | Speed | Heading |
|---|---|---|---|---|---|
| 2026-04-22 18:04 | 25.77765 | -100.11327 | 1282 ft | 0 kts | 30° |
| 2026-04-22 18:18 | 25.77759 | -100.11330 | 1282 ft | 1 kts | 30° |
| 2026-04-22 18:18 | 25.77746 | -100.11337 | 1282 ft | 2 kts | 12° |
| 2026-04-22 18:18 | 25.77731 | -100.11338 | 1282 ft | 2 kts | 356° |
| 2026-04-22 18:19 | 25.77716 | -100.11335 | 1282 ft | 2 kts | 339° |
| 2026-04-22 18:19 | 25.77704 | -100.11327 | 1282 ft | 2 kts | 322° |
| 2026-04-22 18:19 | 25.77693 | -100.11315 | 1281 ft | 1 kts | 306° |
| 2026-04-22 18:19 | 25.77690 | -100.11309 | 1281 ft | 1 kts | 301° |
| 2026-04-22 18:20 | 25.77689 | -100.11308 | 1281 ft | 0 kts | 301° |
| 2026-04-22 18:22 | 25.77690 | -100.11311 | 1281 ft | 1 kts | 301° |
| 2026-04-22 18:22 | 25.77702 | -100.11332 | 1281 ft | 4 kts | 301° |
| 2026-04-22 18:23 | 25.77720 | -100.11365 | 1282 ft | 5 kts | 301° |
| 2026-04-22 18:23 | 25.77739 | -100.11401 | 1283 ft | 6 kts | 301° |
| 2026-04-22 18:23 | 25.77762 | -100.11442 | 1284 ft | 6 kts | 301° |
| 2026-04-22 18:24 | 25.77810 | -100.11530 | 1286 ft | 6 kts | 302° |
| 2026-04-22 18:24 | 25.77839 | -100.11580 | 1288 ft | 9 kts | 303° |
| 2026-04-22 18:24 | 25.77985 | -100.11529 | 1286 ft | 16 kts | 32° |
| 2026-04-22 18:25 | 25.78064 | -100.11497 | 1286 ft | 9 kts | 333° |
| 2026-04-22 18:25 | 25.78114 | -100.11570 | 1288 ft | 12 kts | 301° |
| 2026-04-22 18:25 | 25.78156 | -100.11647 | 1289 ft | 11 kts | 301° |
| 2026-04-22 18:26 | 25.78231 | -100.11786 | 1292 ft | 9 kts | 308° |
| 2026-04-22 18:26 | 25.78286 | -100.11795 | 1292 ft | 12 kts | 21° |
| 2026-04-22 18:26 | 25.78375 | -100.11738 | 1290 ft | 15 kts | 34° |
| 2026-04-22 18:26 | 25.78367 | -100.11634 | 1289 ft | 20 kts | 121° |
| 2026-04-22 18:27 | 25.78186 | -100.11306 | 1283 ft | 87 kts | 121° |
| 2026-04-22 18:27 | 25.77740 | -100.10499 | 1281 ft | 157 kts | 121° |
| 2026-04-22 18:27 | 25.77081 | -100.09357 | 1679 ft | 188 kts | 123° |
| 2026-04-22 18:27 | 25.76356 | -100.08278 | 2926 ft | 173 kts | 126° |
| 2026-04-22 18:28 | 25.75699 | -100.07140 | 3550 ft | 184 kts | 118° |
| 2026-04-22 18:28 | 25.75023 | -100.05836 | 4027 ft | 203 kts | 120° |
| 2026-04-22 18:28 | 25.74297 | -100.04463 | 4675 ft | 214 kts | 118° |
| 2026-04-22 18:28 | 25.73538 | -100.03019 | 5424 ft | 221 kts | 120° |
| 2026-04-22 18:29 | 25.72789 | -100.01595 | 6287 ft | 220 kts | 119° |
| 2026-04-22 18:29 | 25.72002 | -100.00095 | 6995 ft | 226 kts | 121° |
| 2026-04-22 18:29 | 25.70959 | -99.98840 | 7719 ft | 231 kts | 150° |
| 2026-04-22 18:29 | 25.69403 | -99.98360 | 8348 ft | 238 kts | 178° |
| 2026-04-22 18:30 | 25.67738 | -99.98346 | 9053 ft | 241 kts | 179° |
| 2026-04-22 18:30 | 25.64363 | -99.98315 | 10472 ft | 245 kts | 180° |
| 2026-04-22 18:30 | 25.62658 | -99.98317 | 11176 ft | 247 kts | 181° |
| 2026-04-22 18:31 | 25.60949 | -99.98325 | 11848 ft | 249 kts | 181° |
| 2026-04-22 18:31 | 25.59131 | -99.98337 | 12216 ft | 268 kts | 182° |
| 2026-04-22 18:31 | 25.57199 | -99.98352 | 12564 ft | 286 kts | 181° |
| 2026-04-22 18:31 | 25.55151 | -99.98368 | 12921 ft | 305 kts | 182° |
| 2026-04-22 18:32 | 25.52954 | -99.98386 | 13236 ft | 324 kts | 182° |
| 2026-04-22 18:32 | 25.50641 | -99.98405 | 13500 ft | 343 kts | 182° |
| 2026-04-22 18:32 | 25.48149 | -99.98426 | 13723 ft | 363 kts | 182° |
| 2026-04-22 18:32 | 25.45573 | -99.98447 | 13902 ft | 383 kts | 181° |
| 2026-04-22 18:33 | 25.42844 | -99.98471 | 14199 ft | 395 kts | 182° |
| 2026-04-22 18:33 | 25.40072 | -99.98490 | 14775 ft | 400 kts | 182° |
| 2026-04-22 18:33 | 25.37262 | -99.98513 | 15332 ft | 404 kts | 182° |
| 2026-04-22 18:33 | 25.34447 | -99.98579 | 15886 ft | 407 kts | 185° |
| 2026-04-22 18:34 | 25.31590 | -99.98722 | 16459 ft | 412 kts | 185° |
| 2026-04-22 18:34 | 25.28705 | -99.98858 | 17091 ft | 415 kts | 186° |
| 2026-04-22 18:34 | 25.25818 | -99.98994 | 17702 ft | 419 kts | 186° |
| 2026-04-22 18:34 | 25.22878 | -99.99133 | 18315 ft | 422 kts | 186° |
| 2026-04-22 18:35 | 25.19943 | -99.99272 | 18906 ft | 427 kts | 186° |
| 2026-04-22 18:35 | 25.16936 | -99.99414 | 19540 ft | 429 kts | 186° |
| 2026-04-22 18:35 | 25.13956 | -99.99554 | 20054 ft | 434 kts | 186° |
| 2026-04-22 18:35 | 25.10894 | -99.99698 | 20614 ft | 437 kts | 186° |
| 2026-04-22 18:36 | 25.07877 | -99.99839 | 21120 ft | 441 kts | 186° |
| 2026-04-22 18:36 | 25.04802 | -99.99984 | 21664 ft | 443 kts | 186° |
| 2026-04-22 18:36 | 25.01697 | -100.00129 | 22167 ft | 446 kts | 186° |
| 2026-04-22 18:36 | 24.98577 | -100.00275 | 22637 ft | 450 kts | 186° |
| 2026-04-22 18:37 | 24.95428 | -100.00416 | 23088 ft | 454 kts | 185° |
| 2026-04-22 18:37 | 24.92247 | -100.00320 | 23562 ft | 460 kts | 181° |
| 2026-04-22 18:37 | 24.90112 | -100.00199 | 23849 ft | 463 kts | 181° |
| 2026-04-22 18:37 | 24.85794 | -99.99961 | 24431 ft | 467 kts | 181° |
| 2026-04-22 18:38 | 24.82513 | -99.99777 | 24880 ft | 469 kts | 181° |
| 2026-04-22 18:38 | 24.79246 | -99.99593 | 25275 ft | 472 kts | 181° |
| 2026-04-22 18:38 | 24.75942 | -99.99405 | 25694 ft | 475 kts | 181° |
| 2026-04-22 18:39 | 24.69270 | -99.99025 | 26444 ft | 481 kts | 181° |
| 2026-04-22 18:39 | 24.65934 | -99.98836 | 26807 ft | 484 kts | 181° |
| 2026-04-22 18:39 | 24.62527 | -99.98641 | 27204 ft | 486 kts | 181° |
| 2026-04-22 18:39 | 24.59157 | -99.98450 | 27488 ft | 490 kts | 181° |
| 2026-04-22 18:40 | 24.55752 | -99.98256 | 27891 ft | 491 kts | 181° |
| 2026-04-22 18:40 | 24.52338 | -99.98061 | 28192 ft | 494 kts | 181° |
| 2026-04-22 18:40 | 24.48852 | -99.97864 | 28529 ft | 496 kts | 181° |
| 2026-04-22 18:40 | 24.45399 | -99.97666 | 28862 ft | 498 kts | 182° |
| 2026-04-22 18:41 | 24.41928 | -99.97470 | 29190 ft | 500 kts | 182° |
| 2026-04-22 18:41 | 24.38417 | -99.97270 | 29546 ft | 501 kts | 182° |
| 2026-04-22 18:41 | 24.34919 | -99.97072 | 29887 ft | 503 kts | 182° |
| 2026-04-22 18:41 | 24.31410 | -99.96872 | 30393 ft | 500 kts | 182° |
| 2026-04-22 18:42 | 24.27939 | -99.96675 | 30726 ft | 501 kts | 182° |
| 2026-04-22 18:42 | 24.24460 | -99.96478 | 31079 ft | 502 kts | 182° |
| 2026-04-22 18:42 | 24.20919 | -99.96277 | 31512 ft | 501 kts | 182° |
| 2026-04-22 18:42 | 24.17475 | -99.96082 | 31815 ft | 502 kts | 182° |
| 2026-04-22 18:43 | 24.13924 | -99.95882 | 32201 ft | 502 kts | 182° |
| 2026-04-22 18:43 | 24.10432 | -99.95686 | 32474 ft | 503 kts | 183° |
| 2026-04-22 18:43 | 24.06951 | -99.95488 | 32822 ft | 503 kts | 183° |
| 2026-04-22 18:43 | 24.03419 | -99.95287 | 33270 ft | 501 kts | 183° |
| 2026-04-22 18:44 | 23.99956 | -99.95093 | 33511 ft | 503 kts | 183° |
| 2026-04-22 18:44 | 23.96473 | -99.94897 | 33911 ft | 501 kts | 183° |
| 2026-04-22 18:44 | 23.92980 | -99.94700 | 34239 ft | 500 kts | 183° |
| 2026-04-22 18:44 | 23.89534 | -99.94504 | 34648 ft | 498 kts | 183° |
| 2026-04-22 18:45 | 23.86015 | -99.94308 | 34841 ft | 500 kts | 183° |
| 2026-04-22 18:45 | 23.82549 | -99.94112 | 35222 ft | 497 kts | 183° |
| 2026-04-22 18:45 | 23.79124 | -99.93919 | 35350 ft | 493 kts | 184° |
| 2026-04-22 18:45 | 23.75697 | -99.93727 | 35333 ft | 494 kts | 184° |
| 2026-04-22 18:46 | 23.68789 | -99.93340 | 35324 ft | 495 kts | 184° |
| 2026-04-22 18:46 | 23.61876 | -99.92953 | 35326 ft | 495 kts | 183° |
| 2026-04-22 18:47 | 23.54969 | -99.92565 | 35323 ft | 495 kts | 183° |
| 2026-04-22 18:47 | 23.48032 | -99.92176 | 35331 ft | 495 kts | 183° |
| 2026-04-22 18:48 | 23.41086 | -99.91788 | 35303 ft | 496 kts | 183° |
| 2026-04-22 18:48 | 23.34166 | -99.91400 | 35300 ft | 493 kts | 184° |
| 2026-04-22 18:49 | 23.27258 | -99.91016 | 35279 ft | 494 kts | 183° |
| 2026-04-22 18:49 | 23.20377 | -99.90632 | 35261 ft | 492 kts | 184° |
| 2026-04-22 18:50 | 23.13529 | -99.90252 | 35254 ft | 495 kts | 183° |
| 2026-04-22 18:50 | 23.06623 | -99.89867 | 35230 ft | 494 kts | 183° |
| 2026-04-22 18:51 | 22.99662 | -99.89479 | 35218 ft | 492 kts | 183° |
| 2026-04-22 18:51 | 22.92812 | -99.89099 | 35208 ft | 493 kts | 183° |
| 2026-04-22 18:52 | 22.85910 | -99.88717 | 35191 ft | 493 kts | 183° |
| 2026-04-22 18:52 | 22.79050 | -99.88336 | 35188 ft | 493 kts | 183° |
| 2026-04-22 18:53 | 22.72117 | -99.87953 | 35178 ft | 494 kts | 183° |
| 2026-04-22 18:53 | 22.65186 | -99.87570 | 35174 ft | 494 kts | 183° |
| 2026-04-22 18:54 | 22.58264 | -99.87186 | 35182 ft | 492 kts | 183° |
| 2026-04-22 18:54 | 22.51549 | -99.86816 | 35178 ft | 492 kts | 183° |
| 2026-04-22 18:55 | 22.44642 | -99.86437 | 35168 ft | 493 kts | 183° |
| 2026-04-22 18:55 | 22.37735 | -99.86056 | 35163 ft | 492 kts | 183° |
| 2026-04-22 18:56 | 22.30797 | -99.85674 | 35163 ft | 494 kts | 183° |
| 2026-04-22 18:56 | 22.23858 | -99.85293 | 35152 ft | 492 kts | 182° |
| 2026-04-22 18:57 | 22.16956 | -99.84914 | 35157 ft | 494 kts | 182° |
| 2026-04-22 18:57 | 22.10068 | -99.84535 | 35159 ft | 493 kts | 182° |
| 2026-04-22 18:58 | 22.03211 | -99.84158 | 35166 ft | 490 kts | 182° |
| 2026-04-22 18:58 | 21.96373 | -99.83785 | 35162 ft | 492 kts | 182° |
| 2026-04-22 18:59 | 21.89548 | -99.83411 | 35156 ft | 491 kts | 182° |
| 2026-04-22 18:59 | 21.82651 | -99.83035 | 35156 ft | 492 kts | 182° |
| 2026-04-22 19:00 | 21.75820 | -99.82662 | 35143 ft | 490 kts | 182° |
| 2026-04-22 19:00 | 21.68954 | -99.82288 | 35156 ft | 490 kts | 182° |
| 2026-04-22 19:01 | 21.62092 | -99.81914 | 35187 ft | 490 kts | 182° |
| 2026-04-22 19:01 | 21.55305 | -99.81544 | 35211 ft | 490 kts | 182° |
| 2026-04-22 19:02 | 21.48458 | -99.81172 | 35227 ft | 490 kts | 182° |
| 2026-04-22 19:02 | 21.41673 | -99.80802 | 35240 ft | 485 kts | 182° |
| 2026-04-22 19:03 | 21.34835 | -99.80432 | 35251 ft | 489 kts | 182° |
| 2026-04-22 19:03 | 21.28004 | -99.80061 | 35279 ft | 489 kts | 182° |
| 2026-04-22 19:04 | 21.21220 | -99.79693 | 35283 ft | 485 kts | 182° |
| 2026-04-22 19:04 | 21.14395 | -99.79325 | 35290 ft | 486 kts | 182° |
| 2026-04-22 19:05 | 21.07576 | -99.78955 | 35314 ft | 487 kts | 182° |
| 2026-04-22 19:05 | 21.00832 | -99.78645 | 35320 ft | 485 kts | 184° |
| 2026-04-22 19:06 | 20.94068 | -99.78418 | 35345 ft | 483 kts | 183° |
| 2026-04-22 19:07 | 20.83905 | -99.78072 | 35398 ft | 484 kts | 183° |
| 2026-04-22 19:07 | 20.77184 | -99.77844 | 35438 ft | 482 kts | 183° |
| 2026-04-22 19:08 | 20.70448 | -99.77615 | 35460 ft | 481 kts | 183° |
| 2026-04-22 19:08 | 20.63791 | -99.77386 | 35459 ft | 479 kts | 183° |
| 2026-04-22 19:09 | 20.57068 | -99.77156 | 35452 ft | 479 kts | 183° |
| 2026-04-22 19:09 | 20.54631 | -99.77073 | 35453 ft | 479 kts | 183° |
| 2026-04-22 19:11 | 20.48202 | -99.76852 | 35437 ft | 478 kts | 183° |
| 2026-04-22 19:12 | 20.41525 | -99.76623 | 35458 ft | 476 kts | 183° |
| 2026-04-22 19:12 | 20.34883 | -99.76397 | 35479 ft | 478 kts | 183° |
| 2026-04-22 19:13 | 20.28205 | -99.76167 | 35499 ft | 473 kts | 183° |
| 2026-04-22 19:13 | 20.21577 | -99.75911 | 35521 ft | 477 kts | 180° |
| 2026-04-22 19:14 | 20.14944 | -99.74934 | 35544 ft | 479 kts | 176° |
| 2026-04-22 19:14 | 20.08360 | -99.73897 | 35543 ft | 475 kts | 176° |
| 2026-04-22 19:15 | 20.02863 | -99.73025 | 35556 ft | 477 kts | 176° |
| 2026-04-22 19:15 | 19.95147 | -99.71797 | 35572 ft | 476 kts | 176° |
| 2026-04-22 19:16 | 19.88588 | -99.70753 | 35565 ft | 477 kts | 176° |
| 2026-04-22 19:16 | 19.82005 | -99.69704 | 35569 ft | 477 kts | 176° |
| 2026-04-22 19:17 | 19.75424 | -99.68658 | 35575 ft | 477 kts | 176° |
| 2026-04-22 19:17 | 19.68855 | -99.67614 | 35558 ft | 475 kts | 176° |
| 2026-04-22 19:18 | 19.62266 | -99.66568 | 35535 ft | 477 kts | 176° |
| 2026-04-22 19:18 | 19.55639 | -99.65516 | 35532 ft | 477 kts | 176° |
| 2026-04-22 19:19 | 19.49050 | -99.64471 | 35528 ft | 477 kts | 176° |
| 2026-04-22 19:19 | 19.42444 | -99.63424 | 35530 ft | 477 kts | 175° |
| 2026-04-22 19:20 | 19.35854 | -99.62381 | 35509 ft | 476 kts | 175° |
| 2026-04-22 19:20 | 19.29295 | -99.61344 | 35509 ft | 475 kts | 175° |
| 2026-04-22 19:21 | 19.22713 | -99.60304 | 35490 ft | 476 kts | 175° |
| 2026-04-22 19:21 | 19.16128 | -99.59263 | 35488 ft | 476 kts | 175° |
| 2026-04-22 19:22 | 19.09520 | -99.58221 | 35493 ft | 478 kts | 175° |
| 2026-04-22 19:22 | 19.02934 | -99.57182 | 35480 ft | 477 kts | 175° |
| 2026-04-22 19:23 | 18.96363 | -99.56147 | 35467 ft | 477 kts | 175° |
| 2026-04-22 19:23 | 18.89950 | -99.55138 | 35422 ft | 475 kts | 175° |
| 2026-04-22 19:24 | 18.83243 | -99.54082 | 35380 ft | 474 kts | 175° |
| 2026-04-22 19:24 | 18.76668 | -99.53049 | 35351 ft | 474 kts | 175° |
| 2026-04-22 19:25 | 18.70097 | -99.52018 | 35335 ft | 475 kts | 175° |
| 2026-04-22 19:25 | 18.63534 | -99.50988 | 35347 ft | 473 kts | 175° |
| 2026-04-22 19:26 | 18.57024 | -99.49967 | 35332 ft | 474 kts | 175° |
| 2026-04-22 19:26 | 18.50463 | -99.48939 | 35348 ft | 473 kts | 175° |
| 2026-04-22 19:27 | 18.43919 | -99.47914 | 35324 ft | 473 kts | 175° |
| 2026-04-22 19:27 | 18.40673 | -99.47407 | 35037 ft | 477 kts | 175° |
| 2026-04-22 19:27 | 18.37383 | -99.46893 | 34330 ft | 474 kts | 174° |
| 2026-04-22 19:27 | 18.34132 | -99.46382 | 33662 ft | 466 kts | 174° |
| 2026-04-22 19:28 | 18.30918 | -99.45880 | 33011 ft | 461 kts | 174° |
| 2026-04-22 19:28 | 18.27723 | -99.45382 | 32442 ft | 465 kts | 174° |
| 2026-04-22 19:28 | 18.24512 | -99.44882 | 31872 ft | 474 kts | 174° |
| 2026-04-22 19:28 | 18.21174 | -99.44363 | 31269 ft | 481 kts | 174° |
| 2026-04-22 19:29 | 18.17847 | -99.43843 | 30661 ft | 484 kts | 174° |
| 2026-04-22 19:29 | 18.14507 | -99.43322 | 30053 ft | 486 kts | 173° |
| 2026-04-22 19:29 | 18.11179 | -99.42802 | 29450 ft | 489 kts | 173° |
| 2026-04-22 19:29 | 18.07760 | -99.42270 | 28825 ft | 490 kts | 173° |
| 2026-04-22 19:30 | 18.05517 | -99.41920 | 28426 ft | 487 kts | 173° |
| 2026-04-22 19:30 | 18.01125 | -99.41234 | 27632 ft | 478 kts | 173° |
| 2026-04-22 19:30 | 17.97862 | -99.40726 | 27033 ft | 471 kts | 173° |
| 2026-04-22 19:30 | 17.94593 | -99.40216 | 26433 ft | 466 kts | 173° |
| 2026-04-22 19:31 | 17.91406 | -99.39721 | 25855 ft | 462 kts | 173° |
| 2026-04-22 19:31 | 17.88251 | -99.39230 | 25280 ft | 459 kts | 172° |
| 2026-04-22 19:31 | 17.85082 | -99.38738 | 24693 ft | 454 kts | 172° |
| 2026-04-22 19:31 | 17.81993 | -99.38258 | 24129 ft | 449 kts | 172° |
| 2026-04-22 19:32 | 17.78934 | -99.37782 | 23570 ft | 444 kts | 172° |
| 2026-04-22 19:32 | 17.75871 | -99.37307 | 23016 ft | 441 kts | 172° |
| 2026-04-22 19:32 | 17.72855 | -99.36839 | 22469 ft | 437 kts | 171° |
| 2026-04-22 19:32 | 17.69858 | -99.36373 | 21926 ft | 433 kts | 171° |
| 2026-04-22 19:33 | 17.66873 | -99.35910 | 21386 ft | 429 kts | 171° |
| 2026-04-22 19:33 | 17.63927 | -99.35452 | 20846 ft | 425 kts | 171° |
| 2026-04-22 19:33 | 17.61024 | -99.35002 | 20300 ft | 421 kts | 171° |
| 2026-04-22 19:33 | 17.58096 | -99.34549 | 19766 ft | 417 kts | 171° |
| 2026-04-22 19:34 | 17.55250 | -99.34108 | 19223 ft | 414 kts | 171° |
| 2026-04-22 19:34 | 17.52383 | -99.33674 | 18681 ft | 411 kts | 173° |
| 2026-04-22 19:34 | 17.49547 | -99.33584 | 18151 ft | 407 kts | 184° |
| 2026-04-22 19:34 | 17.46779 | -99.34101 | 17661 ft | 403 kts | 194° |
| 2026-04-22 19:35 | 17.44086 | -99.34871 | 17151 ft | 401 kts | 195° |
| 2026-04-22 19:35 | 17.41386 | -99.35680 | 16634 ft | 398 kts | 196° |
| 2026-04-22 19:35 | 17.38749 | -99.36499 | 16123 ft | 395 kts | 196° |
| 2026-04-22 19:35 | 17.36118 | -99.37332 | 15611 ft | 391 kts | 197° |
| 2026-04-22 19:36 | 17.33523 | -99.38163 | 15101 ft | 388 kts | 197° |
| 2026-04-22 19:36 | 17.30951 | -99.38992 | 14587 ft | 387 kts | 197° |
| 2026-04-22 19:36 | 17.28378 | -99.39824 | 14070 ft | 384 kts | 197° |
| 2026-04-22 19:36 | 17.25847 | -99.40643 | 13557 ft | 380 kts | 197° |
| 2026-04-22 19:37 | 17.23322 | -99.41462 | 13049 ft | 378 kts | 197° |
| 2026-04-22 19:37 | 17.20820 | -99.42272 | 12547 ft | 375 kts | 197° |
| 2026-04-22 19:37 | 17.18336 | -99.43077 | 12027 ft | 370 kts | 197° |
| 2026-04-22 19:37 | 17.15912 | -99.43863 | 11561 ft | 365 kts | 197° |
| 2026-04-22 19:38 | 17.13471 | -99.44654 | 11006 ft | 366 kts | 197° |
| 2026-04-22 19:38 | 17.11038 | -99.45441 | 10392 ft | 361 kts | 197° |
| 2026-04-22 19:38 | 17.08692 | -99.46201 | 10107 ft | 345 kts | 197° |
| 2026-04-22 19:38 | 17.06438 | -99.46931 | 10066 ft | 327 kts | 197° |
| 2026-04-22 19:39 | 17.04305 | -99.47623 | 10019 ft | 310 kts | 197° |
| 2026-04-22 19:39 | 17.02307 | -99.48270 | 9988 ft | 294 kts | 197° |
| 2026-04-22 19:39 | 17.00370 | -99.48898 | 9698 ft | 289 kts | 197° |
| 2026-04-22 19:39 | 16.98449 | -99.49519 | 9338 ft | 287 kts | 197° |
| 2026-04-22 19:40 | 16.96554 | -99.50132 | 8997 ft | 284 kts | 197° |
| 2026-04-22 19:40 | 16.94652 | -99.50747 | 8627 ft | 283 kts | 197° |
| 2026-04-22 19:40 | 16.92774 | -99.51354 | 8299 ft | 281 kts | 198° |
| 2026-04-22 19:40 | 16.90925 | -99.51952 | 7975 ft | 278 kts | 198° |
| 2026-04-22 19:41 | 16.89129 | -99.52531 | 7600 ft | 276 kts | 198° |
| 2026-04-22 19:41 | 16.87331 | -99.53112 | 7168 ft | 263 kts | 198° |
| 2026-04-22 19:41 | 16.85626 | -99.53662 | 6930 ft | 246 kts | 198° |
| 2026-04-22 19:41 | 16.84031 | -99.54178 | 6507 ft | 241 kts | 198° |
| 2026-04-22 19:42 | 16.82433 | -99.54694 | 6028 ft | 238 kts | 199° |
| 2026-04-22 19:42 | 16.80870 | -99.55199 | 5629 ft | 229 kts | 199° |
| 2026-04-22 19:42 | 16.79358 | -99.55686 | 5002 ft | 230 kts | 199° |
| 2026-04-22 19:42 | 16.77843 | -99.56184 | 4577 ft | 218 kts | 200° |
| 2026-04-22 19:43 | 16.75194 | -99.57079 | 3612 ft | 193 kts | 200° |
| 2026-04-22 19:43 | 16.73943 | -99.57502 | 3188 ft | 185 kts | 200° |
| 2026-04-22 19:43 | 16.72716 | -99.57917 | 2847 ft | 184 kts | 200° |
| 2026-04-22 19:44 | 16.71580 | -99.58518 | 2568 ft | 185 kts | 227° |
| 2026-04-22 19:44 | 16.70984 | -99.59685 | 2345 ft | 184 kts | 258° |
| 2026-04-22 19:44 | 16.71110 | -99.61002 | 2111 ft | 186 kts | 290° |
| 2026-04-22 19:44 | 16.71576 | -99.62277 | 1798 ft | 190 kts | 290° |
| 2026-04-22 19:45 | 16.71990 | -99.63579 | 1605 ft | 183 kts | 288° |
| 2026-04-22 19:45 | 16.72378 | -99.64839 | 1560 ft | 181 kts | 289° |
| 2026-04-22 19:45 | 16.72748 | -99.66003 | 1415 ft | 170 kts | 288° |
| 2026-04-22 19:45 | 16.73095 | -99.67113 | 1227 ft | 154 kts | 287° |
| 2026-04-22 19:46 | 16.73413 | -99.68117 | 1058 ft | 135 kts | 287° |
| 2026-04-22 19:46 | 16.73694 | -99.69005 | 852 ft | 124 kts | 286° |
| 2026-04-22 19:46 | 16.73976 | -99.69875 | 706 ft | 129 kts | 287° |
| 2026-04-22 19:46 | 16.74273 | -99.70759 | 549 ft | 132 kts | 287° |
| 2026-04-22 19:47 | 16.74564 | -99.71667 | 396 ft | 129 kts | 285° |
| 2026-04-22 19:47 | 16.74838 | -99.72572 | 216 ft | 130 kts | 285° |
| 2026-04-22 19:47 | 16.75115 | -99.73473 | 47 ft | 136 kts | 287° |
| 2026-04-22 19:47 | 16.75411 | -99.74400 | 51 ft | 130 kts | 287° |
| 2026-04-22 19:48 | 16.75746 | -99.75355 | 608 ft | 146 kts | 289° |
| 2026-04-22 19:48 | 16.76160 | -99.76373 | 1229 ft | 166 kts | 302° |
| 2026-04-22 19:48 | 16.77148 | -99.77034 | 1856 ft | 184 kts | 348° |
| 2026-04-22 19:48 | 16.78413 | -99.76836 | 2897 ft | 191 kts | 15° |
| 2026-04-22 19:49 | 16.79664 | -99.76427 | 3902 ft | 201 kts | 14° |
| 2026-04-22 19:49 | 16.81161 | -99.75965 | 4017 ft | 238 kts | 14° |
| 2026-04-22 19:49 | 16.82751 | -99.75481 | 3990 ft | 232 kts | 14° |
| 2026-04-22 19:49 | 16.84284 | -99.75015 | 3995 ft | 228 kts | 14° |
| 2026-04-22 19:50 | 16.85767 | -99.74384 | 4006 ft | 232 kts | 36° |
| 2026-04-22 19:50 | 16.86763 | -99.73064 | 4040 ft | 237 kts | 70° |
| 2026-04-22 19:50 | 16.86922 | -99.71372 | 4039 ft | 238 kts | 103° |
| 2026-04-22 19:50 | 16.86182 | -99.69847 | 4049 ft | 243 kts | 134° |
| 2026-04-22 19:51 | 16.84911 | -99.68628 | 4015 ft | 248 kts | 139° |
| 2026-04-22 19:51 | 16.83625 | -99.67419 | 3994 ft | 245 kts | 136° |
| 2026-04-22 19:51 | 16.82540 | -99.66074 | 3999 ft | 244 kts | 124° |
| 2026-04-22 19:51 | 16.81666 | -99.64530 | 3998 ft | 248 kts | 117° |
| 2026-04-22 19:52 | 16.80920 | -99.62894 | 4001 ft | 247 kts | 114° |
| 2026-04-22 19:52 | 16.80270 | -99.61262 | 3996 ft | 246 kts | 112° |
| 2026-04-22 19:52 | 16.79657 | -99.59573 | 3997 ft | 244 kts | 111° |
| 2026-04-22 19:52 | 16.78830 | -99.58129 | 3997 ft | 225 kts | 140° |
| 2026-04-22 19:53 | 16.77521 | -99.57461 | 4029 ft | 203 kts | 177° |
| 2026-04-22 19:53 | 16.76078 | -99.57498 | 3989 ft | 214 kts | 188° |
| 2026-04-22 19:53 | 16.74583 | -99.57730 | 3686 ft | 218 kts | 192° |
| 2026-04-22 19:53 | 16.73102 | -99.58056 | 3296 ft | 222 kts | 196° |
| 2026-04-22 19:54 | 16.71782 | -99.58834 | 2621 ft | 215 kts | 232° |
| 2026-04-22 19:54 | 16.71225 | -99.60124 | 2568 ft | 183 kts | 259° |
| 2026-04-22 19:54 | 16.71328 | -99.61419 | 2336 ft | 185 kts | 287° |
| 2026-04-22 19:54 | 16.71736 | -99.62716 | 2084 ft | 187 kts | 286° |
| 2026-04-22 19:55 | 16.72126 | -99.64013 | 1831 ft | 185 kts | 286° |
| 2026-04-22 19:55 | 16.72520 | -99.65285 | 1585 ft | 183 kts | 286° |
| 2026-04-22 19:55 | 16.72903 | -99.66505 | 1333 ft | 171 kts | 287° |
| 2026-04-22 19:55 | 16.73262 | -99.67643 | 1111 ft | 162 kts | 287° |
| 2026-04-22 19:56 | 16.73613 | -99.68751 | 931 ft | 153 kts | 287° |
| 2026-04-22 19:56 | 16.73934 | -99.69746 | 765 ft | 136 kts | 289° |
| 2026-04-22 19:56 | 16.74239 | -99.70615 | 614 ft | 125 kts | 288° |
| 2026-04-22 19:56 | 16.74518 | -99.71487 | 464 ft | 131 kts | 285° |
| 2026-04-22 19:57 | 16.74791 | -99.72398 | 280 ft | 130 kts | 286° |
| 2026-04-22 19:57 | 16.75067 | -99.73306 | 87 ft | 131 kts | 285° |
| 2026-04-22 19:57 | 16.75329 | -99.74173 | 28 ft | 109 kts | 290° |
| 2026-04-22 19:57 | 16.75492 | -99.74700 | 28 ft | 50 kts | 287° |
| 2026-04-22 19:58 | 16.75586 | -99.74937 | 29 ft | 24 kts | 306° |
| 2026-04-22 19:58 | 16.75693 | -99.75041 | 29 ft | 23 kts | 327° |
| 2026-04-22 19:58 | 16.75844 | -99.75115 | 29 ft | 22 kts | 338° |
| 2026-04-22 19:58 | 16.75963 | -99.75168 | 30 ft | 15 kts | 335° |
| 2026-04-22 19:59 | 16.75985 | -99.75250 | 30 ft | 12 kts | 249° |
| 2026-04-22 20:00 | 16.76079 | -99.75643 | 30 ft | 4 kts | 0° |
| 2026-04-22 20:00 | 16.76129 | -99.75630 | 31 ft | 8 kts | 17° |
| 2026-04-22 20:01 | 16.76154 | -99.75621 | 31 ft | 0 kts | 19° |
| 2026-04-22 20:01 | 16.76151 | -99.75622 | 31 ft | 0 kts | 19° |